createdAt,value
2019-04-01T00:00:28.574Z,33.55
2019-04-01T00:00:54.892Z,34.21
2019-04-01T00:01:24.102Z,33.63
2019-04-01T00:01:56.450Z,33.50
2019-04-01T00:02:22.712Z,33.35
2019-04-01T00:02:47.361Z,33.78
2019-04-01T00:03:12.873Z,33.77
2019-04-01T00:03:37.502Z,33.57
2019-04-01T00:04:02.146Z,33.58
2019-04-01T00:04:26.788Z,33.20
2019-04-01T00:04:51.444Z,33.78
2019-04-01T00:05:16.074Z,33.58
2019-04-01T00:05:40.711Z,33.38
2019-04-01T00:06:05.373Z,33.43
2019-04-01T00:06:30.035Z,33.49
2019-04-01T00:06:54.704Z,33.50
2019-04-01T00:07:19.408Z,33.55
2019-04-01T00:07:44.058Z,33.86
2019-04-01T00:08:08.678Z,33.40
2019-04-01T00:08:33.290Z,33.36
2019-04-01T00:08:57.864Z,33.54
2019-04-01T00:09:22.510Z,33.68
2019-04-01T00:09:47.152Z,33.13
2019-04-01T00:10:11.787Z,33.33
2019-04-01T00:10:36.446Z,33.54
2019-04-01T00:11:01.054Z,33.64
2019-04-01T00:11:25.728Z,33.49
2019-04-01T00:11:50.348Z,33.71
2019-04-01T00:12:15.048Z,33.67
2019-04-01T00:12:39.679Z,33.72
2019-04-01T00:13:04.372Z,33.81
2019-04-01T00:13:29.025Z,33.61
2019-04-01T00:13:53.678Z,33.68
2019-04-01T00:14:18.303Z,33.41
2019-04-01T00:14:42.922Z,33.72
2019-04-01T00:15:07.834Z,33.12
2019-04-01T00:15:32.534Z,33.71
2019-04-01T00:15:57.194Z,33.87
2019-04-01T00:16:21.830Z,33.75
2019-04-01T00:16:46.545Z,33.94
2019-04-01T00:17:11.247Z,33.84
2019-04-01T00:17:35.902Z,33.79
2019-04-01T00:18:00.572Z,33.55
2019-04-01T00:18:25.194Z,33.70
2019-04-01T00:19:02.291Z,33.47
2019-04-01T00:19:16.212Z,33.74
2019-04-01T00:19:40.874Z,33.71
2019-04-01T00:20:06.341Z,33.87
2019-04-01T00:20:30.978Z,33.81
2019-04-01T00:20:55.606Z,33.88
2019-04-01T00:21:20.260Z,33.54
2019-04-01T00:21:44.886Z,33.92
2019-04-01T00:22:09.549Z,33.90
2019-04-01T00:22:34.251Z,33.63
2019-04-01T00:22:59.064Z,33.73
2019-04-01T00:23:23.916Z,33.71
2019-04-01T00:23:48.561Z,33.42
2019-04-01T00:24:13.213Z,33.52
2019-04-01T00:24:37.876Z,33.48
2019-04-01T00:25:02.501Z,33.57
2019-04-01T00:25:27.223Z,33.97
2019-04-01T00:25:51.894Z,33.54
2019-04-01T00:26:16.540Z,33.41
2019-04-01T00:26:41.179Z,33.45
2019-04-01T00:27:05.818Z,34.09
2019-04-01T00:27:30.485Z,33.73
2019-04-01T00:27:55.156Z,33.62
2019-04-01T00:28:19.786Z,33.33
2019-04-01T00:28:44.414Z,33.65
2019-04-01T00:29:09.056Z,33.93
2019-04-01T00:29:33.676Z,33.83
2019-04-01T00:29:58.386Z,33.49
2019-04-01T00:30:22.986Z,33.59
2019-04-01T00:30:47.722Z,34.00
2019-04-01T00:31:12.982Z,33.50
2019-04-01T00:31:37.606Z,33.55
2019-04-01T00:32:02.218Z,33.43
2019-04-01T00:32:26.877Z,33.33
2019-04-01T00:32:51.527Z,33.83
2019-04-01T00:33:16.187Z,33.89
2019-04-01T00:33:40.815Z,33.03
2019-04-01T00:34:05.473Z,33.46
2019-04-01T00:34:30.056Z,33.32
2019-04-01T00:34:54.702Z,33.53
2019-04-01T00:35:19.354Z,33.63
2019-04-01T00:35:43.987Z,33.55
2019-04-01T00:36:08.640Z,33.96
2019-04-01T00:36:33.265Z,33.70
2019-04-01T00:36:57.904Z,33.68
2019-04-01T00:37:22.596Z,33.44
2019-04-01T00:37:47.225Z,33.46
2019-04-01T00:38:13.103Z,33.51
2019-04-01T00:38:37.726Z,33.56
2019-04-01T00:39:02.440Z,33.53
2019-04-01T00:39:27.094Z,33.56
2019-04-01T00:39:51.709Z,33.65
2019-04-01T00:40:16.348Z,33.56
2019-04-01T00:40:40.990Z,33.40
2019-04-01T00:41:05.669Z,33.88
2019-04-01T00:41:30.398Z,33.71
2019-04-01T00:41:59.173Z,33.72
2019-04-01T00:42:40.545Z,33.35
2019-04-01T00:43:12.660Z,34.11
2019-04-01T00:43:57.358Z,33.80
2019-04-01T00:44:22.268Z,33.81
2019-04-01T00:44:47.014Z,33.91
2019-04-01T00:45:13.289Z,33.74
2019-04-01T00:45:39.571Z,33.47
2019-04-01T00:46:04.257Z,33.78
2019-04-01T00:46:29.276Z,34.01
2019-04-01T00:46:54.265Z,33.88
2019-04-01T00:47:18.905Z,33.34
2019-04-01T00:47:43.553Z,33.80
2019-04-01T00:48:08.577Z,33.93
2019-04-01T00:48:33.217Z,34.14
2019-04-01T00:48:57.967Z,34.02
2019-04-01T00:49:22.617Z,32.87
2019-04-01T00:49:47.247Z,33.76
2019-04-01T00:50:13.003Z,33.71
2019-04-01T00:50:37.634Z,33.33
2019-04-01T00:51:02.272Z,33.52
2019-04-01T00:51:27.373Z,33.61
2019-04-01T00:51:51.980Z,33.54
2019-04-01T00:52:16.670Z,33.45
2019-04-01T00:52:41.301Z,33.58
2019-04-01T00:53:06.051Z,33.75
2019-04-01T00:53:30.716Z,33.72
2019-04-01T00:53:55.355Z,34.10
2019-04-01T00:54:20.029Z,33.40
2019-04-01T00:54:44.653Z,33.54
2019-04-01T00:55:09.283Z,33.52
2019-04-01T00:55:33.907Z,33.79
2019-04-01T00:55:58.535Z,33.94
2019-04-01T00:56:23.153Z,33.92
2019-04-01T00:56:47.799Z,33.33
2019-04-01T00:57:13.034Z,33.83
2019-04-01T00:57:37.678Z,33.64
2019-04-01T00:58:02.403Z,33.83
2019-04-01T00:58:30.389Z,33.69
2019-04-01T00:58:53.443Z,33.27
2019-04-01T00:59:18.103Z,33.34
2019-04-01T00:59:42.786Z,33.73
2019-04-01T01:00:07.498Z,33.87
2019-04-01T01:00:32.113Z,33.75
2019-04-01T01:00:56.869Z,33.74
2019-04-01T01:01:21.576Z,33.58
2019-04-01T01:01:46.239Z,34.06
2019-04-01T01:02:10.879Z,33.58
2019-04-01T01:02:35.489Z,33.40
2019-04-01T01:03:00.111Z,32.65
2019-04-01T01:03:24.791Z,33.47
2019-04-01T01:03:49.447Z,33.71
2019-04-01T01:04:14.092Z,33.48
2019-04-01T01:04:38.724Z,33.41
2019-04-01T01:05:03.487Z,33.43
2019-04-01T01:05:28.106Z,33.55
2019-04-01T01:05:52.826Z,33.79
2019-04-01T01:06:17.467Z,33.88
2019-04-01T01:06:42.125Z,33.24
2019-04-01T01:07:06.713Z,33.63
2019-04-01T01:07:31.371Z,33.64
2019-04-01T01:07:56.136Z,33.45
2019-04-01T01:08:20.744Z,33.79
2019-04-01T01:08:45.419Z,34.06
2019-04-01T01:09:10.069Z,33.51
2019-04-01T01:09:34.717Z,33.44
2019-04-01T01:09:59.349Z,33.62
2019-04-01T01:11:00.687Z,33.76
2019-04-01T01:11:25.329Z,33.97
2019-04-01T01:11:49.965Z,33.50
2019-04-01T01:12:14.645Z,33.47
2019-04-01T01:12:39.274Z,33.24
2019-04-01T01:13:03.916Z,33.55
2019-04-01T01:13:28.539Z,33.82
2019-04-01T01:13:53.207Z,33.32
2019-04-01T01:14:17.833Z,33.77
2019-04-01T01:14:42.637Z,33.93
2019-04-01T01:15:07.423Z,33.88
2019-04-01T01:15:32.070Z,33.76
2019-04-01T01:15:56.715Z,33.65
2019-04-01T01:16:21.387Z,33.22
2019-04-01T01:16:46.015Z,33.83
2019-04-01T01:17:10.755Z,33.22
2019-04-01T01:17:35.377Z,33.95
2019-04-01T01:18:00.032Z,33.38
2019-04-01T01:18:24.652Z,33.39
2019-04-01T01:18:49.276Z,33.68
2019-04-01T01:19:13.915Z,33.66
2019-04-01T01:19:38.543Z,33.71
2019-04-01T01:20:03.353Z,33.66
2019-04-01T01:20:29.613Z,33.89
2019-04-01T01:20:54.418Z,33.84
2019-04-01T01:21:19.086Z,33.22
2019-04-01T01:21:44.799Z,33.40
2019-04-01T01:22:09.437Z,33.66
2019-04-01T01:22:34.073Z,33.86
2019-04-01T01:22:58.696Z,33.58
2019-04-01T01:23:23.312Z,33.57
2019-04-01T01:23:47.974Z,33.87
2019-04-01T01:24:13.273Z,33.72
2019-04-01T01:24:37.906Z,33.74
2019-04-01T01:25:02.576Z,34.04
2019-04-01T01:25:27.197Z,33.73
2019-04-01T01:25:51.858Z,33.65
2019-04-01T01:26:16.573Z,33.54
2019-04-01T01:26:41.222Z,33.63
2019-04-01T01:27:05.885Z,34.03
2019-04-01T01:27:30.507Z,33.78
2019-04-01T01:27:55.179Z,33.59
2019-04-01T01:28:19.825Z,33.64
2019-04-01T01:28:44.473Z,33.96
2019-04-01T01:29:09.087Z,33.98
2019-04-01T01:29:33.717Z,33.88
2019-04-01T01:29:58.343Z,34.12
2019-04-01T01:30:22.973Z,34.17
2019-04-01T01:30:47.636Z,34.14
2019-04-01T01:31:13.397Z,33.90
2019-04-01T01:31:38.060Z,33.68
2019-04-01T01:32:02.728Z,33.37
2019-04-01T01:32:27.387Z,34.07
2019-04-01T01:32:52.095Z,33.95
2019-04-01T01:33:16.714Z,33.84
2019-04-01T01:33:41.576Z,33.92
2019-04-01T01:34:06.515Z,33.96
2019-04-01T01:34:31.255Z,34.05
2019-04-01T01:34:55.871Z,33.84
2019-04-01T01:35:20.539Z,34.24
2019-04-01T01:35:45.160Z,34.00
2019-04-01T01:36:09.804Z,34.10
2019-04-01T01:36:34.732Z,34.19
2019-04-01T01:36:59.337Z,34.21
2019-04-01T01:37:26.427Z,33.79
2019-04-01T01:37:51.091Z,34.37
2019-04-01T01:38:15.753Z,34.19
2019-04-01T01:38:40.394Z,33.72
2019-04-01T01:39:05.877Z,34.50
2019-04-01T01:39:30.515Z,34.09
2019-04-01T01:39:56.519Z,33.94
2019-04-01T01:40:21.157Z,33.81
2019-04-01T01:40:45.817Z,34.43
2019-04-01T01:41:10.518Z,34.05
2019-04-01T01:41:35.149Z,33.80
2019-04-01T01:41:59.826Z,33.78
2019-04-01T01:42:24.464Z,34.17
2019-04-01T01:42:49.128Z,34.10
2019-04-01T01:43:13.788Z,34.24
2019-04-01T01:43:38.426Z,34.11
2019-04-01T01:44:03.096Z,33.66
2019-04-01T01:44:27.754Z,34.17
2019-04-01T01:44:52.413Z,34.17
2019-04-01T01:45:17.063Z,34.13
2019-04-01T01:45:41.710Z,34.05
2019-04-01T01:46:06.382Z,34.04
2019-04-01T01:46:31.000Z,34.02
2019-04-01T01:46:55.674Z,34.10
2019-04-01T01:47:20.297Z,34.14
2019-04-01T01:47:44.962Z,34.22
2019-04-01T01:48:09.584Z,34.30
2019-04-01T01:48:34.310Z,34.15
2019-04-01T01:48:58.925Z,34.58
2019-04-01T01:49:23.586Z,34.05
2019-04-01T01:49:48.382Z,34.00
2019-04-01T01:50:13.380Z,34.00
2019-04-01T01:50:37.995Z,34.31
2019-04-01T01:51:02.632Z,34.15
2019-04-01T01:51:27.332Z,34.08
2019-04-01T01:51:51.953Z,34.17
2019-04-01T01:52:16.614Z,34.14
2019-04-01T01:52:41.240Z,34.27
2019-04-01T01:53:05.948Z,33.98
2019-04-01T01:53:30.600Z,33.76
2019-04-01T01:53:55.286Z,33.59
2019-04-01T01:54:19.896Z,33.73
2019-04-01T01:54:44.524Z,33.56
2019-04-01T01:55:09.704Z,34.54
2019-04-01T01:55:34.886Z,33.82
2019-04-01T01:55:59.542Z,34.12
2019-04-01T01:56:24.176Z,34.02
2019-04-01T01:56:48.812Z,33.91
2019-04-01T01:57:13.436Z,33.57
2019-04-01T01:57:38.426Z,34.03
2019-04-01T01:58:03.066Z,33.95
2019-04-01T01:58:27.742Z,34.12
2019-04-01T01:58:52.346Z,33.92
2019-04-01T01:59:17.003Z,33.92
2019-04-01T01:59:41.618Z,34.39
2019-04-01T02:00:06.363Z,34.08
2019-04-01T02:00:31.755Z,34.60
2019-04-01T02:00:57.464Z,33.52
2019-04-01T02:01:22.116Z,34.47
2019-04-01T02:01:46.830Z,34.49
2019-04-01T02:02:11.460Z,33.82
2019-04-01T02:02:36.097Z,34.29
2019-04-01T02:03:00.856Z,34.43
2019-04-01T02:03:25.510Z,34.42
2019-04-01T02:03:50.122Z,34.00
2019-04-01T02:04:14.768Z,34.38
2019-04-01T02:04:39.452Z,34.18
2019-04-01T02:05:05.242Z,33.89
2019-04-01T02:05:29.860Z,34.40
2019-04-01T02:05:54.492Z,34.17
2019-04-01T02:06:19.137Z,34.31
2019-04-01T02:06:43.800Z,34.03
2019-04-01T02:07:08.416Z,34.38
2019-04-01T02:07:33.056Z,34.20
2019-04-01T02:07:57.682Z,34.38
2019-04-01T02:08:22.334Z,33.87
2019-04-01T02:08:46.988Z,34.30
2019-04-01T02:09:11.619Z,34.54
2019-04-01T02:09:36.281Z,34.57
2019-04-01T02:10:00.971Z,34.03
2019-04-01T02:10:25.829Z,33.93
2019-04-01T02:10:50.496Z,34.24
2019-04-01T02:11:15.224Z,34.24
2019-04-01T02:11:39.931Z,34.41
2019-04-01T02:12:04.762Z,34.38
2019-04-01T02:12:29.462Z,34.14
2019-04-01T02:12:54.108Z,33.82
2019-04-01T02:13:20.108Z,34.48
2019-04-01T02:13:45.042Z,34.76
2019-04-01T02:14:09.672Z,34.49
2019-04-01T02:14:34.306Z,34.41
2019-04-01T02:14:58.957Z,34.18
2019-04-01T02:15:23.642Z,34.44
2019-04-01T02:15:48.278Z,34.32
2019-04-01T02:16:13.509Z,34.32
2019-04-01T02:16:38.219Z,34.22
2019-04-01T02:17:02.860Z,34.58
2019-04-01T02:17:27.507Z,34.57
2019-04-01T02:17:52.218Z,34.70
2019-04-01T02:18:17.009Z,34.21
2019-04-01T02:18:41.664Z,34.21
2019-04-01T02:19:06.290Z,34.50
2019-04-01T02:19:30.944Z,34.87
2019-04-01T02:19:55.593Z,34.83
2019-04-01T02:20:20.492Z,34.56
2019-04-01T02:20:45.200Z,34.50
2019-04-01T02:21:09.824Z,35.03
2019-04-01T02:21:34.454Z,34.53
2019-04-01T02:21:59.124Z,34.41
2019-04-01T02:22:23.769Z,34.70
2019-04-01T02:22:48.406Z,34.73
2019-04-01T02:23:13.568Z,34.49
2019-04-01T02:23:38.194Z,34.83
2019-04-01T02:24:02.821Z,33.89
2019-04-01T02:24:28.024Z,34.11
2019-04-01T02:24:52.679Z,34.94
2019-04-01T02:25:17.309Z,34.65
2019-04-01T02:25:41.981Z,34.77
2019-04-01T02:26:06.631Z,34.59
2019-04-01T02:26:31.274Z,34.19
2019-04-01T02:26:55.934Z,34.21
2019-04-01T02:27:20.574Z,34.41
2019-04-01T02:27:45.212Z,34.05
2019-04-01T02:28:09.904Z,34.28
2019-04-01T02:28:34.526Z,34.64
2019-04-01T02:28:59.135Z,34.30
2019-04-01T02:29:23.754Z,34.87
2019-04-01T02:29:48.398Z,34.39
2019-04-01T02:30:13.576Z,34.54
2019-04-01T02:30:38.297Z,34.42
2019-04-01T02:31:02.967Z,34.72
2019-04-01T02:31:27.731Z,34.85
2019-04-01T02:31:52.357Z,34.79
2019-04-01T02:32:17.055Z,34.66
2019-04-01T02:32:41.692Z,34.71
2019-04-01T02:33:06.317Z,34.30
2019-04-01T02:33:31.011Z,34.72
2019-04-01T02:33:55.670Z,34.46
2019-04-01T02:34:20.354Z,34.50
2019-04-01T02:34:44.964Z,34.71
2019-04-01T02:35:09.607Z,34.12
2019-04-01T02:35:34.218Z,34.25
2019-04-01T02:35:58.858Z,34.48
2019-04-01T02:36:23.489Z,34.16
2019-04-01T02:36:48.181Z,34.69
2019-04-01T02:37:13.577Z,34.06
2019-04-01T02:37:38.377Z,34.52
2019-04-01T02:38:03.104Z,34.10
2019-04-01T02:38:27.758Z,33.84
2019-04-01T02:38:52.404Z,34.46
2019-04-01T02:39:17.056Z,34.55
2019-04-01T02:39:41.686Z,34.31
2019-04-01T02:40:06.581Z,34.54
2019-04-01T02:40:31.244Z,34.00
2019-04-01T02:40:55.885Z,34.84
2019-04-01T02:41:20.532Z,34.45
2019-04-01T02:41:45.151Z,34.20
2019-04-01T02:42:09.820Z,34.05
2019-04-01T02:42:34.473Z,34.67
2019-04-01T02:42:59.086Z,34.33
2019-04-01T02:43:23.778Z,34.40
2019-04-01T02:43:48.464Z,34.32
2019-04-01T02:44:13.528Z,33.56
2019-04-01T02:44:38.158Z,34.24
2019-04-01T02:45:02.803Z,33.54
2019-04-01T02:45:27.481Z,34.15
2019-04-01T02:45:52.141Z,34.26
2019-04-01T02:46:16.797Z,34.08
2019-04-01T02:46:41.573Z,34.74
2019-04-01T02:47:06.406Z,34.51
2019-04-01T02:47:31.051Z,34.21
2019-04-01T02:47:55.697Z,34.43
2019-04-01T02:48:20.397Z,34.22
2019-04-01T02:48:45.025Z,34.57
2019-04-01T02:49:09.689Z,34.09
2019-04-01T02:49:34.311Z,34.47
2019-04-01T02:49:58.960Z,34.33
2019-04-01T02:50:23.594Z,34.01
2019-04-01T02:50:48.327Z,33.93
2019-04-01T02:51:13.524Z,34.39
2019-04-01T02:51:38.193Z,34.26
2019-04-01T02:52:02.810Z,34.18
2019-04-01T02:52:27.736Z,34.42
2019-04-01T02:52:52.437Z,34.32
2019-04-01T02:53:17.087Z,34.02
2019-04-01T02:53:41.711Z,34.14
2019-04-01T02:54:06.322Z,34.11
2019-04-01T02:54:30.943Z,34.02
2019-04-01T02:54:55.602Z,34.35
2019-04-01T02:55:20.237Z,34.24
2019-04-01T02:55:44.903Z,34.32
2019-04-01T02:56:09.516Z,34.32
2019-04-01T02:56:34.148Z,34.55
2019-04-01T02:56:58.776Z,33.96
2019-04-01T02:57:23.437Z,34.33
2019-04-01T02:57:48.036Z,34.24
2019-04-01T02:58:13.597Z,34.48
2019-04-01T02:58:38.246Z,34.38
2019-04-01T02:59:02.877Z,34.03
2019-04-01T02:59:27.744Z,34.17
2019-04-01T02:59:52.481Z,34.27
2019-04-01T03:00:17.121Z,34.17
2019-04-01T03:00:41.779Z,34.23
2019-04-01T03:01:06.391Z,34.22
2019-04-01T03:01:31.025Z,34.31
2019-04-01T03:01:55.684Z,34.15
2019-04-01T03:02:20.376Z,34.33
2019-04-01T03:02:45.035Z,34.28
2019-04-01T03:03:09.661Z,34.29
2019-04-01T03:03:34.331Z,34.54
2019-04-01T03:03:58.980Z,34.30
2019-04-01T03:04:23.633Z,33.96
2019-04-01T03:04:48.340Z,33.71
2019-04-01T03:05:13.750Z,34.25
2019-04-01T03:05:38.409Z,34.13
2019-04-01T03:06:03.041Z,34.65
2019-04-01T03:06:27.686Z,34.45
2019-04-01T03:06:52.374Z,33.89
2019-04-01T03:07:17.034Z,34.04
2019-04-01T03:07:41.722Z,34.10
2019-04-01T03:08:06.344Z,34.16
2019-04-01T03:08:30.999Z,34.43
2019-04-01T03:08:55.666Z,33.68
2019-04-01T03:09:20.410Z,34.28
2019-04-01T03:09:45.039Z,34.01
2019-04-01T03:10:09.669Z,34.32
2019-04-01T03:10:34.327Z,34.40
2019-04-01T03:10:59.005Z,34.49
2019-04-01T03:11:23.725Z,34.53
2019-04-01T03:11:48.421Z,34.42
2019-04-01T03:12:13.814Z,34.24
2019-04-01T03:12:38.478Z,34.27
2019-04-01T03:13:03.118Z,34.08
2019-04-01T03:13:27.785Z,34.25
2019-04-01T03:13:52.460Z,34.25
2019-04-01T03:14:17.136Z,34.30
2019-04-01T03:14:41.774Z,34.41
2019-04-01T03:15:07.064Z,34.62
2019-04-01T03:15:31.697Z,34.32
2019-04-01T03:15:56.500Z,34.63
2019-04-01T03:16:21.177Z,34.63
2019-04-01T03:16:45.795Z,34.47
2019-04-01T03:17:10.441Z,34.33
2019-04-01T03:17:35.148Z,34.17
2019-04-01T03:17:59.766Z,34.10
2019-04-01T03:18:24.407Z,34.21
2019-04-01T03:18:49.033Z,34.21
2019-04-01T03:19:14.028Z,34.32
2019-04-01T03:19:38.780Z,34.43
2019-04-01T03:20:04.068Z,34.01
2019-04-01T03:20:28.730Z,33.94
2019-04-01T03:20:54.042Z,34.25
2019-04-01T03:21:22.510Z,34.25
2019-04-01T03:21:47.213Z,34.23
2019-04-01T03:22:11.843Z,34.10
2019-04-01T03:22:36.497Z,34.70
2019-04-01T03:23:01.197Z,34.04
2019-04-01T03:23:25.875Z,34.84
2019-04-01T03:23:50.494Z,34.21
2019-04-01T03:24:15.138Z,34.24
2019-04-01T03:24:39.814Z,34.56
2019-04-01T03:25:05.807Z,34.42
2019-04-01T03:25:30.451Z,34.16
2019-04-01T03:25:55.071Z,33.80
2019-04-01T03:26:19.717Z,34.30
2019-04-01T03:26:44.367Z,34.66
2019-04-01T03:27:09.285Z,34.52
2019-04-01T03:27:33.940Z,34.29
2019-04-01T03:27:59.045Z,34.18
2019-04-01T03:28:23.702Z,33.73
2019-04-01T03:28:48.356Z,34.48
2019-04-01T03:29:13.912Z,34.53
2019-04-01T03:29:38.532Z,34.00
2019-04-01T03:30:03.251Z,34.76
2019-04-01T03:30:27.877Z,34.46
2019-04-01T03:30:52.538Z,34.28
2019-04-01T03:31:17.171Z,34.31
2019-04-01T03:31:41.835Z,34.13
2019-04-01T03:32:06.458Z,34.61
2019-04-01T03:32:31.084Z,34.59
2019-04-01T03:32:55.729Z,33.95
2019-04-01T03:33:20.559Z,34.53
2019-04-01T03:33:45.317Z,34.47
2019-04-01T03:34:09.932Z,34.23
2019-04-01T03:34:34.563Z,34.48
2019-04-01T03:34:59.203Z,34.21
2019-04-01T03:35:23.841Z,34.37
2019-04-01T03:35:48.497Z,34.30
2019-04-01T03:36:13.872Z,34.38
2019-04-01T03:36:38.617Z,34.69
2019-04-01T03:37:03.260Z,34.38
2019-04-01T03:37:28.023Z,34.42
2019-04-01T03:37:52.669Z,34.55
2019-04-01T03:38:17.330Z,34.68
2019-04-01T03:38:42.151Z,34.83
2019-04-01T03:39:06.934Z,34.70
2019-04-01T03:39:31.558Z,34.75
2019-04-01T03:39:56.239Z,34.26
2019-04-01T03:40:20.908Z,34.55
2019-04-01T03:40:45.692Z,34.45
2019-04-01T03:41:10.405Z,34.54
2019-04-01T03:41:35.032Z,34.38
2019-04-01T03:41:59.758Z,34.76
2019-04-01T03:42:24.365Z,34.34
2019-04-01T03:42:49.001Z,34.63
2019-04-01T03:43:13.972Z,34.84
2019-04-01T03:43:38.687Z,34.30
2019-04-01T03:44:03.307Z,34.44
2019-04-01T03:44:27.966Z,34.25
2019-04-01T03:44:55.154Z,34.43
2019-04-01T03:45:19.049Z,34.48
2019-04-01T03:45:43.733Z,34.67
2019-04-01T03:46:08.386Z,34.78
2019-04-01T03:46:33.039Z,34.76
2019-04-01T03:46:57.659Z,34.37
2019-04-01T03:47:22.373Z,34.53
2019-04-01T03:47:47.025Z,34.50
2019-04-01T03:48:11.639Z,34.59
2019-04-01T03:48:36.267Z,34.22
2019-04-01T03:49:00.896Z,34.57
2019-04-01T03:49:25.567Z,34.44
2019-04-01T03:49:50.206Z,34.63
2019-04-01T03:50:14.852Z,34.74
2019-04-01T03:50:39.584Z,34.60
2019-04-01T03:51:04.225Z,34.49
2019-04-01T03:51:28.874Z,34.40
2019-04-01T03:51:53.561Z,34.81
2019-04-01T03:52:18.231Z,34.46
2019-04-01T03:52:42.856Z,34.50
2019-04-01T03:53:07.804Z,34.40
2019-04-01T03:53:32.444Z,34.96
2019-04-01T03:53:57.119Z,34.40
2019-04-01T03:54:21.745Z,34.58
2019-04-01T03:54:46.495Z,34.90
2019-04-01T03:55:11.261Z,34.55
2019-04-01T03:55:35.897Z,34.62
2019-04-01T03:56:00.613Z,34.75
2019-04-01T03:56:25.228Z,34.70
2019-04-01T03:56:49.947Z,34.51
2019-04-01T03:57:14.552Z,34.67
2019-04-01T03:57:39.210Z,34.74
2019-04-01T03:58:03.905Z,34.72
2019-04-01T03:58:28.548Z,34.67
2019-04-01T03:58:53.190Z,34.24
2019-04-01T03:59:17.885Z,34.47
2019-04-01T03:59:42.625Z,34.40
2019-04-01T04:00:07.346Z,34.43
2019-04-01T04:00:32.069Z,34.67
2019-04-01T04:00:56.758Z,34.60
2019-04-01T04:01:21.777Z,34.62
2019-04-01T04:01:46.415Z,34.57
2019-04-01T04:02:11.080Z,34.66
2019-04-01T04:02:35.689Z,34.75
2019-04-01T04:03:00.363Z,35.05
2019-04-01T04:03:25.014Z,34.74
2019-04-01T04:03:49.652Z,34.58
2019-04-01T04:04:14.362Z,34.74
2019-04-01T04:04:39.174Z,34.69
2019-04-01T04:05:05.337Z,34.92
2019-04-01T04:05:29.970Z,34.16
2019-04-01T04:05:54.639Z,34.76
2019-04-01T04:06:19.273Z,34.98
2019-04-01T04:06:43.945Z,34.65
2019-04-01T04:07:08.639Z,34.62
2019-04-01T04:07:33.287Z,34.67
2019-04-01T04:07:57.935Z,34.60
2019-04-01T04:08:22.576Z,34.23
2019-04-01T04:08:47.295Z,34.60
2019-04-01T04:09:13.074Z,33.88
2019-04-01T04:09:37.713Z,34.46
2019-04-01T04:10:02.336Z,34.65
2019-04-01T04:10:27.067Z,34.54
2019-04-01T04:10:51.700Z,34.77
2019-04-01T04:11:16.328Z,34.02
2019-04-01T04:11:41.225Z,34.47
2019-04-01T04:12:05.853Z,34.56
2019-04-01T04:12:30.498Z,34.45
2019-04-01T04:12:55.220Z,34.27
2019-04-01T04:13:19.928Z,34.65
2019-04-01T04:13:44.586Z,34.45
2019-04-01T04:14:09.217Z,34.16
2019-04-01T04:14:33.858Z,34.90
2019-04-01T04:14:58.495Z,34.16
2019-04-01T04:15:23.108Z,34.75
2019-04-01T04:15:47.740Z,34.83
2019-04-01T04:16:13.111Z,34.73
2019-04-01T04:16:37.965Z,34.34
2019-04-01T04:17:02.587Z,34.58
2019-04-01T04:17:27.258Z,34.42
2019-04-01T04:17:51.977Z,34.85
2019-04-01T04:18:16.694Z,34.45
2019-04-01T04:18:41.672Z,34.82
2019-04-01T04:19:06.311Z,34.62
2019-04-01T04:19:30.939Z,34.18
2019-04-01T04:19:55.611Z,34.11
2019-04-01T04:20:20.294Z,34.43
2019-04-01T04:20:44.997Z,34.26
2019-04-01T04:21:09.680Z,34.57
2019-04-01T04:21:34.294Z,34.36
2019-04-01T04:21:58.939Z,34.33
2019-04-01T04:22:23.640Z,34.79
2019-04-01T04:22:48.376Z,33.82
2019-04-01T04:23:13.047Z,34.77
2019-04-01T04:23:37.704Z,33.99
2019-04-01T04:24:02.335Z,34.34
2019-04-01T04:24:26.952Z,34.63
2019-04-01T04:24:52.024Z,33.81
2019-04-01T04:25:16.649Z,33.89
2019-04-01T04:25:41.501Z,34.57
2019-04-01T04:26:06.129Z,34.65
2019-04-01T04:26:31.701Z,34.47
2019-04-01T04:26:56.371Z,33.83
2019-04-01T04:27:21.010Z,33.69
2019-04-01T04:27:45.641Z,34.18
2019-04-01T04:28:10.339Z,34.41
2019-04-01T04:28:34.999Z,34.42
2019-04-01T04:28:59.743Z,34.89
2019-04-01T04:29:24.410Z,35.01
2019-04-01T04:29:49.032Z,34.25
2019-04-01T04:30:16.938Z,34.41
2019-04-01T04:30:41.569Z,34.31
2019-04-01T04:31:06.187Z,34.33
2019-04-01T04:31:30.826Z,34.25
2019-04-01T04:31:55.465Z,34.18
2019-04-01T04:32:20.068Z,34.02
2019-04-01T04:32:44.687Z,34.50
2019-04-01T04:33:09.454Z,34.12
2019-04-01T04:33:34.090Z,34.11
2019-04-01T04:33:58.796Z,33.96
2019-04-01T04:34:23.427Z,33.99
2019-04-01T04:34:48.062Z,33.87
2019-04-01T04:35:13.097Z,34.23
2019-04-01T04:35:37.708Z,34.40
2019-04-01T04:36:02.344Z,34.16
2019-04-01T04:36:26.982Z,34.27
2019-04-01T04:36:51.621Z,34.28
2019-04-01T04:37:16.261Z,34.28
2019-04-01T04:37:41.096Z,34.37
2019-04-01T04:38:05.717Z,33.60
2019-04-01T04:38:30.482Z,34.13
2019-04-01T04:38:55.124Z,34.00
2019-04-01T04:39:19.831Z,34.14
2019-04-01T04:39:44.449Z,33.92
2019-04-01T04:40:09.135Z,34.06
2019-04-01T04:40:33.816Z,34.05
2019-04-01T04:40:58.453Z,33.94
2019-04-01T04:41:23.106Z,33.93
2019-04-01T04:41:47.833Z,33.97
2019-04-01T04:42:13.138Z,33.86
2019-04-01T04:42:37.772Z,33.18
2019-04-01T04:43:02.396Z,33.82
2019-04-01T04:43:27.028Z,33.73
2019-04-01T04:43:51.710Z,33.72
2019-04-01T04:44:16.439Z,33.73
2019-04-01T04:44:41.075Z,33.51
2019-04-01T04:45:06.978Z,33.64
2019-04-01T04:45:31.626Z,33.69
2019-04-01T04:45:56.244Z,33.53
2019-04-01T04:46:21.540Z,33.57
2019-04-01T04:46:46.407Z,33.46
2019-04-01T04:47:11.048Z,33.56
2019-04-01T04:47:35.714Z,33.47
2019-04-01T04:48:00.302Z,33.53
2019-04-01T04:48:24.976Z,33.58
2019-04-01T04:48:49.599Z,33.58
2019-04-01T04:49:14.227Z,33.47
2019-04-01T04:49:38.918Z,33.56
2019-04-01T04:50:04.682Z,33.33
2019-04-01T04:50:29.387Z,32.87
2019-04-01T04:50:54.023Z,33.42
2019-04-01T04:51:18.671Z,33.23
2019-04-01T04:51:43.325Z,33.33
2019-04-01T04:52:07.961Z,33.15
2019-04-01T04:52:32.590Z,33.37
2019-04-01T04:52:57.209Z,33.28
2019-04-01T04:53:21.863Z,32.77
2019-04-01T04:53:46.471Z,33.40
2019-04-01T04:54:11.115Z,33.18
2019-04-01T04:54:35.780Z,33.35
2019-04-01T04:55:00.423Z,33.27
2019-04-01T04:55:25.089Z,33.20
2019-04-01T04:55:49.712Z,33.29
2019-04-01T04:56:14.352Z,33.21
2019-04-01T04:56:38.990Z,33.17
2019-04-01T04:57:28.859Z,33.19
2019-04-01T04:57:53.487Z,32.78
2019-04-01T04:58:18.210Z,33.32
2019-04-01T04:58:42.901Z,33.44
2019-04-01T04:59:07.523Z,33.20
2019-04-01T04:59:32.259Z,33.39
2019-04-01T04:59:56.917Z,33.18
2019-04-01T05:00:21.576Z,33.17
2019-04-01T05:00:46.212Z,33.46
2019-04-01T05:01:10.913Z,33.34
2019-04-01T05:01:35.566Z,33.34
2019-04-01T05:02:00.177Z,33.41
2019-04-01T05:02:24.874Z,33.36
2019-04-01T05:02:49.722Z,33.34
2019-04-01T05:03:14.347Z,33.45
2019-04-01T05:03:39.109Z,33.11
2019-04-01T05:04:03.719Z,33.09
2019-04-01T05:04:28.387Z,33.31
2019-04-01T05:04:53.035Z,33.30
2019-04-01T05:05:17.677Z,33.38
2019-04-01T05:05:42.334Z,32.81
2019-04-01T05:06:07.022Z,33.04
2019-04-01T05:06:31.735Z,32.91
2019-04-01T05:06:56.391Z,32.89
2019-04-01T05:07:21.027Z,33.16
2019-04-01T05:07:45.710Z,32.86
2019-04-01T05:08:10.342Z,33.29
2019-04-01T05:08:35.365Z,33.11
2019-04-01T05:09:00.067Z,33.20
2019-04-01T05:09:24.695Z,32.79
2019-04-01T05:09:49.433Z,32.91
2019-04-01T05:10:14.240Z,33.09
2019-04-01T05:10:39.054Z,33.05
2019-04-01T05:11:03.666Z,32.37
2019-04-01T05:11:28.415Z,33.08
2019-04-01T05:11:53.145Z,33.07
2019-04-01T05:12:17.920Z,33.19
2019-04-01T05:12:42.705Z,33.43
2019-04-01T05:13:08.697Z,33.30
2019-04-01T05:13:33.448Z,33.39
2019-04-01T05:13:58.881Z,33.33
2019-04-01T05:14:23.595Z,33.24
2019-04-01T05:14:48.327Z,33.10
2019-04-01T05:15:13.282Z,32.28
2019-04-01T05:15:37.967Z,33.13
2019-04-01T05:16:02.621Z,32.87
2019-04-01T05:16:27.255Z,32.57
2019-04-01T05:16:51.903Z,32.77
2019-04-01T05:17:16.613Z,32.99
2019-04-01T05:17:41.253Z,32.47
2019-04-01T05:18:06.049Z,32.45
2019-04-01T05:18:30.651Z,32.72
2019-04-01T05:18:55.315Z,32.51
2019-04-01T05:19:19.952Z,33.00
2019-04-01T05:19:44.579Z,33.08
2019-04-01T05:20:09.273Z,32.93
2019-04-01T05:20:33.939Z,32.57
2019-04-01T05:20:59.651Z,32.72